Arcata, CA (95518)

5:14 AM PDT on July 26, 2016 (GMT -0700)
APRSWXNET | | Change Station

Elev 5 ft 40.86 °N, 124.09 °W | Updated 16 minutes ago

Overcast
Overcast
56 °F
Feels Like 56 °F
N
1
Wind Variable Wind from NW
Gusts 3.0 mph

Today
High -- | Low -- °F
--% Chance of Precip.
Yesterday
High -- | Low -- °F
Precip. -- in
Pressure 30.02 in
Visibility 4.0 miles
Clouds Overcast 300 ft
Dew Point 55 °F
Humidity 95%
Rainfall in
Snow Depth Not available.
6:07 AM 8:37 PM
Waning Gibbous, 55% visible
METAR KACV 261153Z AUTO 30003KT 4SM BR OVC003 13/12 A3000 RMK AO2 SLP165 T01330122 10139 20133 56001
Pressure 30.02 in
Visibility 4.0 miles
Clouds Overcast 300 ft
Dew Point 55 °F
Humidity 95%
Rainfall in
Snow Depth Not available.
6:07 AM 8:37 PM
Waning Gibbous, 55% visible
METAR KACV 261153Z AUTO 30003KT 4SM BR OVC003 13/12 A3000 RMK AO2 SLP165 T01330122 10139 20133 56001

10-Day Weather Forecast

Almanac

Astronomy

Jul. 26, 2016 Rise Set
Actual Time
Civil Twilight
Nautical Twilight
Astronomical Twilight
Moon
Length of Visible Light
Length of Day
Tomorrow will be .
, % of the Moon is Illuminated

Today's Extremes

State Highs State Lows

Community

WunderPhotos

Upload Photos

1,927,580 photos uploaded!

WunderBlog® & News

Nearby

Air Quality

  Air Quality AQ Index Pollutant
Not available.

Snow Depth

Station Depth Elevation

Earthquake Activity

City Distance Mag. Time & Date
Minimum magnitude displayed is 2.5.

Coastal Water Temperatures

Place Temperature

Stations

Nearby Weather Stations

Station Location Temp. Windchill Dew Point Humidity Wind Precip. Elev Updated Type
                   

Watches & Warnings

There are currently no watches in effect.